Time;durP1;ratioP1;P1;durP2;ratioP2;P2;SDS_P1;SDS_P2;PMS_P1;PMS_P2;Temp;Humidity;BMP_temperature;BMP_pressure;BME280_temperature;BME280_humidity;BME280_pressure;Samples;Min_cycle;Max_cycle;Signal;HPM_P1;HPM_P2
2020/12/22 00:04:24;;;;;;;8.60;5.10;;;;;;;;;;4803171;28;20380;-59
2020/12/22 00:06:55;;;;;;;5.12;4.50;;;;;;;;;;4191367;34;20133;-60
2020/12/22 00:09:21;;;;;;;5.62;4.60;;;;;;;;;;4179043;34;20129;-59
2020/12/22 00:11:47;;;;;;;5.45;4.60;;;;;;;;;;4191327;34;20641;-59
2020/12/22 00:14:12;;;;;;;5.05;4.53;;;;;;;;;;4191237;34;20451;-59
2020/12/22 00:16:38;;;;;;;6.10;4.80;;;;;;;;;;4190902;34;20121;-58
2020/12/22 00:19:04;;;;;;;6.68;4.68;;;;;;;;;;4191094;34;20569;-60
2020/12/22 00:21:32;;;;;;;7.43;5.50;;;;;;;;;;4191328;34;20117;-58
2020/12/22 00:23:58;;;;;;;6.65;5.20;;;;;;;;;;4191039;34;20554;-58
2020/12/22 00:26:24;;;;;;;5.78;4.80;;;;;;;;;;4191378;34;20194;-58
2020/12/22 00:28:50;;;;;;;6.07;5.47;;;;;;;;;;4191187;34;20125;-59
2020/12/22 00:31:16;;;;;;;7.78;5.15;;;;;;;;;;4178237;34;20109;-59
2020/12/22 00:33:42;;;;;;;6.30;5.32;;;;;;;;;;4191330;34;20136;-60
2020/12/22 00:36:08;;;;;;;6.43;4.90;;;;;;;;;;4191274;34;20604;-60
2020/12/22 00:38:34;;;;;;;5.18;4.65;;;;;;;;;;4191070;34;20130;-60
2020/12/22 00:41:00;;;;;;;6.22;4.90;;;;;;;;;;4178294;34;20583;-61
2020/12/22 00:43:26;;;;;;;5.75;4.90;;;;;;;;;;4191054;34;20117;-59
2020/12/22 00:45:52;;;;;;;7.53;5.00;;;;;;;;;;4190915;34;20194;-60
2020/12/22 00:48:18;;;;;;;6.15;4.97;;;;;;;;;;4191030;34;20101;-59
2020/12/22 00:50:44;;;;;;;5.53;4.90;;;;;;;;;;4190850;34;20286;-60
2020/12/22 00:53:10;;;;;;;7.03;5.00;;;;;;;;;;4190975;34;20108;-59
2020/12/22 00:55:36;;;;;;;5.30;4.80;;;;;;;;;;4178245;34;20193;-59
2020/12/22 00:58:02;;;;;;;6.30;5.12;;;;;;;;;;4190927;34;20105;-60
2020/12/22 01:00:28;;;;;;;5.53;4.70;;;;;;;;;;4190789;34;20118;-60
2020/12/22 01:02:54;;;;;;;8.60;5.22;;;;;;;;;;4191103;34;20630;-62
2020/12/22 01:05:20;;;;;;;6.22;5.18;;;;;;;;;;4190468;34;20137;-59
2020/12/22 01:07:48;;;;;;;6.75;4.93;;;;;;;;;;4190521;34;20134;-61
2020/12/22 01:10:14;;;;;;;5.68;4.72;;;;;;;;;;4190772;34;20102;-60
2020/12/22 01:12:42;;;;;;;5.57;4.80;;;;;;;;;;4178078;34;20114;-59
2020/12/22 01:15:08;;;;;;;5.25;4.70;;;;;;;;;;4177898;34;20122;-60
2020/12/22 01:17:34;;;;;;;5.50;4.93;;;;;;;;;;4190756;34;20205;-59
2020/12/22 01:20:00;;;;;;;5.03;4.53;;;;;;;;;;4190563;34;20109;-59
2020/12/22 01:22:26;;;;;;;5.70;5.03;;;;;;;;;;4190628;34;20110;-60
2020/12/22 01:24:52;;;;;;;6.35;4.90;;;;;;;;;;4190844;34;20106;-59
2020/12/22 01:27:18;;;;;;;7.03;5.00;;;;;;;;;;4190605;34;20448;-60
2020/12/22 01:29:44;;;;;;;6.12;4.37;;;;;;;;;;4190805;34;20128;-60
2020/12/22 01:32:10;;;;;;;6.05;4.80;;;;;;;;;;4177777;34;20126;-60
2020/12/22 01:34:36;;;;;;;6.65;5.00;;;;;;;;;;4190508;34;20127;-61
2020/12/22 01:37:01;;;;;;;5.65;5.03;;;;;;;;;;4190505;34;20133;-60
2020/12/22 01:39:29;;;;;;;5.75;4.70;;;;;;;;;;4177904;34;20186;-60
2020/12/22 01:41:55;;;;;;;6.05;4.65;;;;;;;;;;4190413;34;20114;-60
2020/12/22 01:44:21;;;;;;;4.90;4.30;;;;;;;;;;4177542;34;20175;-60
2020/12/22 01:46:48;;;;;;;5.55;5.00;;;;;;;;;;4190357;34;20133;-60
2020/12/22 01:49:24;;;;;;;4.93;4.45;;;;;;;;;;4190295;34;20197;-60
2020/12/22 01:51:52;;;;;;;5.85;4.95;;;;;;;;;;4177936;34;20190;-60
2020/12/22 01:54:18;;;;;;;5.32;4.53;;;;;;;;;;4177413;34;20110;-60
2020/12/22 01:56:44;;;;;;;5.55;4.90;;;;;;;;;;4177821;34;20105;-60
2020/12/22 01:59:10;;;;;;;5.97;4.65;;;;;;;;;;4190463;34;20117;-60
2020/12/22 02:01:36;;;;;;;5.12;4.10;;;;;;;;;;4177826;34;20199;-60
2020/12/22 02:04:04;;;;;;;6.12;4.85;;;;;;;;;;4189991;34;20134;-60
2020/12/22 02:06:30;;;;;;;5.43;4.68;;;;;;;;;;4166350;34;20517;-59
2020/12/22 02:08:59;;;;;;;4.93;4.43;;;;;;;;;;4189985;34;20126;-60
2020/12/22 02:11:29;;;;;;;4.97;4.47;;;;;;;;;;4177300;34;20114;-60
2020/12/22 02:13:56;;;;;;;5.55;4.93;;;;;;;;;;4190009;34;20112;-60
2020/12/22 02:16:22;;;;;;;4.85;4.35;;;;;;;;;;4190350;34;20194;-60
2020/12/22 02:18:48;;;;;;;5.35;4.78;;;;;;;;;;4190393;34;20118;-60
2020/12/22 02:21:14;;;;;;;7.07;4.95;;;;;;;;;;4179482;34;20138;-60
2020/12/22 02:23:39;;;;;;;5.87;4.80;;;;;;;;;;4192213;34;20517;-60
2020/12/22 02:26:05;;;;;;;5.47;4.90;;;;;;;;;;4192039;34;20628;-60
2020/12/22 02:28:32;;;;;;;5.78;4.90;;;;;;;;;;4192339;34;20129;-61
2020/12/22 02:31:00;;;;;;;6.60;5.10;;;;;;;;;;4179483;34;20264;-61
2020/12/22 02:33:26;;;;;;;5.68;5.05;;;;;;;;;;4192029;34;20120;-61
2020/12/22 02:35:52;;;;;;;5.85;4.72;;;;;;;;;;4192027;34;20118;-60
2020/12/22 02:38:18;;;;;;;5.80;4.80;;;;;;;;;;4192109;34;20117;-61
2020/12/22 02:40:46;;;;;;;5.35;4.85;;;;;;;;;;4192035;34;20153;-61
2020/12/22 02:43:12;;;;;;;4.55;4.07;;;;;;;;;;4192286;34;20466;-63
2020/12/22 02:45:42;;;;;;;6.50;4.97;;;;;;;;;;4191922;34;20129;-62
2020/12/22 02:48:11;;;;;;;5.45;4.95;;;;;;;;;;4179336;34;20113;-63
2020/12/22 02:50:37;;;;;;;6.00;5.07;;;;;;;;;;4179290;34;20186;-61
2020/12/22 02:53:04;;;;;;;5.15;4.32;;;;;;;;;;4179512;34;20208;-61
2020/12/22 02:55:29;;;;;;;5.80;4.87;;;;;;;;;;4192056;34;20114;-61
2020/12/22 02:57:55;;;;;;;5.87;5.25;;;;;;;;;;4179337;34;20125;-61
2020/12/22 03:00:22;;;;;;;6.07;5.00;;;;;;;;;;4179049;34;20115;-61
2020/12/22 03:02:48;;;;;;;6.60;4.90;;;;;;;;;;4192062;34;20094;-61
2020/12/22 03:05:14;;;;;;;7.43;4.80;;;;;;;;;;4191698;34;20223;-64
2020/12/22 03:07:41;;;;;;;5.85;4.80;;;;;;;;;;4191778;34;20118;-62
2020/12/22 03:10:11;;;;;;;6.30;5.37;;;;;;;;;;4191624;34;20110;-61
2020/12/22 03:12:37;;;;;;;6.40;5.47;;;;;;;;;;4191820;34;20221;-59
2020/12/22 03:15:06;;;;;;;6.32;4.93;;;;;;;;;;4191888;34;20607;-60
2020/12/22 03:17:33;;;;;;;6.95;5.35;;;;;;;;;;4187233;34;20599;-61
2020/12/22 03:19:59;;;;;;;5.68;5.00;;;;;;;;;;4187549;34;20499;-62
2020/12/22 03:22:25;;;;;;;5.25;4.60;;;;;;;;;;4176042;34;20479;-61
2020/12/22 03:24:51;;;;;;;6.00;5.40;;;;;;;;;;4156438;34;20126;-62
2020/12/22 03:27:17;;;;;;;7.45;5.55;;;;;;;;;;4188984;34;20114;-59
2020/12/22 03:29:43;;;;;;;6.32;5.30;;;;;;;;;;4188043;34;20123;-61
2020/12/22 03:32:09;;;;;;;5.95;5.35;;;;;;;;;;4189225;34;20122;-63
2020/12/22 03:34:35;;;;;;;5.82;5.12;;;;;;;;;;4180970;34;20149;-62
2020/12/22 03:37:01;;;;;;;6.32;5.53;;;;;;;;;;4177750;34;20214;-62
2020/12/22 03:39:27;;;;;;;6.70;5.60;;;;;;;;;;4171221;34;20113;-61
2020/12/22 03:41:55;;;;;;;7.03;5.35;;;;;;;;;;4191200;34;20089;-63
2020/12/22 03:44:20;;;;;;;6.28;5.60;;;;;;;;;;4190996;34;20230;-61
2020/12/22 03:46:49;;;;;;;6.87;5.62;;;;;;;;;;4189830;34;20538;-62
2020/12/22 03:49:18;;;;;;;8.30;5.35;;;;;;;;;;4177025;34;20294;-64
2020/12/22 03:51:44;;;;;;;7.60;6.37;;;;;;;;;;4167117;34;20119;-62
2020/12/22 03:54:11;;;;;;;6.35;5.45;;;;;;;;;;4175975;34;20226;-63
2020/12/22 03:56:38;;;;;;;5.47;4.97;;;;;;;;;;4176417;34;20442;-62
2020/12/22 03:59:03;;;;;;;6.68;5.95;;;;;;;;;;4176359;34;20122;-64
2020/12/22 04:01:29;;;;;;;5.50;4.93;;;;;;;;;;4164886;34;20157;-64
2020/12/22 04:03:56;;;;;;;7.20;5.57;;;;;;;;;;4177411;34;20219;-64
2020/12/22 04:06:21;;;;;;;6.35;5.70;;;;;;;;;;4164825;34;20594;-64
2020/12/22 04:08:52;;;;;;;6.40;5.32;;;;;;;;;;4177537;34;20130;-64
2020/12/22 04:11:19;;;;;;;6.22;5.62;;;;;;;;;;4163798;34;20126;-63
2020/12/22 04:13:45;;;;;;;8.88;5.82;;;;;;;;;;4177530;34;20097;-64
2020/12/22 04:16:11;;;;;;;7.45;5.70;;;;;;;;;;4177353;34;20098;-63
2020/12/22 04:18:37;;;;;;;6.57;5.50;;;;;;;;;;4190611;34;20110;-62
2020/12/22 04:21:03;;;;;;;6.55;5.35;;;;;;;;;;4191236;34;20103;-61
2020/12/22 04:23:29;;;;;;;6.65;5.95;;;;;;;;;;4191028;34;20129;-62
2020/12/22 04:25:54;;;;;;;6.20;5.60;;;;;;;;;;4191129;34;20173;-62
2020/12/22 04:28:20;;;;;;;7.07;6.12;;;;;;;;;;4190961;34;20126;-66
2020/12/22 04:30:47;;;;;;;7.47;5.72;;;;;;;;;;4190890;34;20110;-64
2020/12/22 04:33:12;;;;;;;6.70;5.72;;;;;;;;;;4166825;34;20110;-64
2020/12/22 04:35:39;;;;;;;6.03;5.18;;;;;;;;;;4190913;34;20606;-63
2020/12/22 04:38:05;;;;;;;7.90;6.35;;;;;;;;;;4178146;34;20463;-63
2020/12/22 04:40:32;;;;;;;6.50;5.90;;;;;;;;;;4190732;34;20114;-64
2020/12/22 04:42:59;;;;;;;7.30;5.68;;;;;;;;;;4177395;34;20124;-63
2020/12/22 04:45:28;;;;;;;5.65;4.90;;;;;;;;;;4191063;34;20386;-60
2020/12/22 04:47:54;;;;;;;6.75;5.85;;;;;;;;;;4190771;34;20133;-63
2020/12/22 04:50:20;;;;;;;6.43;5.60;;;;;;;;;;4190576;34;20121;-63
2020/12/22 04:52:46;;;;;;;6.62;5.78;;;;;;;;;;4177871;34;20161;-65
2020/12/22 04:55:12;;;;;;;6.90;5.30;;;;;;;;;;4177892;34;20553;-63
2020/12/22 04:57:45;;;;;;;7.78;5.35;;;;;;;;;;4190728;34;20206;-63
2020/12/22 05:00:11;;;;;;;5.93;5.32;;;;;;;;;;4178172;34;20118;-63
2020/12/22 05:02:37;;;;;;;6.22;5.62;;;;;;;;;;4190537;34;20442;-63
2020/12/22 05:05:03;;;;;;;7.57;5.35;;;;;;;;;;4166246;34;20129;-63
2020/12/22 05:07:29;;;;;;;6.82;5.53;;;;;;;;;;4177845;34;20134;-63
2020/12/22 05:09:55;;;;;;;7.60;6.05;;;;;;;;;;4190665;34;20152;-63
2020/12/22 05:12:21;;;;;;;6.95;5.60;;;;;;;;;;4190735;34;20128;-63
2020/12/22 05:14:47;;;;;;;6.03;5.37;;;;;;;;;;4177601;34;20129;-64
2020/12/22 05:17:14;;;;;;;6.05;5.22;;;;;;;;;;4190483;34;20130;-63
2020/12/22 05:19:41;;;;;;;5.95;4.82;;;;;;;;;;4177570;34;20122;-64
2020/12/22 05:22:07;;;;;;;6.28;5.65;;;;;;;;;;4177717;34;20194;-64
2020/12/22 05:24:34;;;;;;;6.60;5.65;;;;;;;;;;4166482;34;20137;-63
2020/12/22 05:27:01;;;;;;;6.68;5.35;;;;;;;;;;4190303;34;20205;-62
2020/12/22 05:29:28;;;;;;;7.05;5.65;;;;;;;;;;4177507;34;20129;-63
2020/12/22 05:31:53;;;;;;;5.90;5.30;;;;;;;;;;4190264;34;20102;-62
2020/12/22 05:34:27;;;;;;;7.93;6.30;;;;;;;;;;4190203;34;20109;-62
2020/12/22 05:36:54;;;;;;;7.50;5.87;;;;;;;;;;4178269;34;20194;-63
2020/12/22 05:39:20;;;;;;;6.72;5.85;;;;;;;;;;4166428;34;20103;-63
2020/12/22 05:41:45;;;;;;;6.30;5.22;;;;;;;;;;4190430;34;20102;-63
2020/12/22 05:44:13;;;;;;;7.95;5.57;;;;;;;;;;4190362;34;20129;-64
2020/12/22 05:46:40;;;;;;;5.90;5.30;;;;;;;;;;4190504;34;20244;-63
2020/12/22 05:49:07;;;;;;;6.60;5.90;;;;;;;;;;4177813;34;20130;-63
2020/12/22 05:51:33;;;;;;;7.68;5.90;;;;;;;;;;4190523;34;20113;-63
2020/12/22 05:54:06;;;;;;;6.37;5.40;;;;;;;;;;4191620;34;20132;-63
2020/12/22 05:56:32;;;;;;;6.18;5.50;;;;;;;;;;4179693;34;20639;-63
2020/12/22 05:58:58;;;;;;;7.47;6.22;;;;;;;;;;4179690;34;20122;-62
2020/12/22 06:01:34;;;;;;;6.85;6.10;;;;;;;;;;4192584;34;20229;-62
2020/12/22 06:04:02;;;;;;;9.18;6.47;;;;;;;;;;4192452;34;20137;-63
2020/12/22 06:06:28;;;;;;;8.68;6.15;;;;;;;;;;4179701;34;20099;-62
2020/12/22 06:08:56;;;;;;;6.78;6.07;;;;;;;;;;4192498;34;20552;-64
2020/12/22 06:11:23;;;;;;;9.00;6.00;;;;;;;;;;4192330;34;20113;-61
2020/12/22 06:13:52;;;;;;;8.18;6.45;;;;;;;;;;4179471;34;20489;-61
2020/12/22 06:16:19;;;;;;;9.00;6.53;;;;;;;;;;4179674;34;20526;-61
2020/12/22 06:18:46;;;;;;;8.52;6.37;;;;;;;;;;4179463;34;20428;-61
2020/12/22 06:21:17;;;;;;;8.27;6.35;;;;;;;;;;4192004;34;20211;-62
2020/12/22 06:23:43;;;;;;;6.55;5.85;;;;;;;;;;4192150;34;20109;-62
2020/12/22 06:26:09;;;;;;;7.57;6.15;;;;;;;;;;4192237;34;20102;-61
2020/12/22 06:28:35;;;;;;;7.82;6.37;;;;;;;;;;4179295;34;20128;-62
2020/12/22 06:31:16;;;;;;;7.62;6.50;;;;;;;;;;4179264;34;20205;-62
2020/12/22 06:33:42;;;;;;;6.55;5.95;;;;;;;;;;4180979;34;20553;-61
2020/12/22 06:36:10;;;;;;;7.95;6.57;;;;;;;;;;4192072;34;20462;-61
2020/12/22 06:38:53;;;;;;;8.20;6.15;;;;;;;;;;4168303;34;20117;-62
2020/12/22 06:41:34;;;;;;;6.43;5.75;;;;;;;;;;4179329;34;20466;-63
2020/12/22 06:44:23;;;;;;;6.20;5.60;;;;;;;;;;4192088;34;20104;-62
2020/12/22 06:46:57;;;;;;;7.57;5.82;;;;;;;;;;4184415;34;20130;-64
2020/12/22 06:49:45;;;;;;;8.00;6.28;;;;;;;;;;4191909;34;20177;-63
2020/12/22 06:52:33;;;;;;;6.47;5.78;;;;;;;;;;4179169;34;20137;-62
2020/12/22 06:55:00;;;;;;;7.10;6.20;;;;;;;;;;4192196;34;20141;-63
2020/12/22 06:57:45;;;;;;;7.15;5.85;;;;;;;;;;4192189;34;20105;-63
2020/12/22 07:00:26;;;;;;;7.55;6.75;;;;;;;;;;4192053;34;20458;-63
2020/12/22 07:03:12;;;;;;;7.28;6.12;;;;;;;;;;4191788;34;20117;-62
2020/12/22 07:05:39;;;;;;;6.82;5.70;;;;;;;;;;4178923;34;20098;-63
2020/12/22 07:08:05;;;;;;;7.05;6.03;;;;;;;;;;4192054;34;20098;-62
2020/12/22 07:10:36;;;;;;;6.15;5.43;;;;;;;;;;4191899;34;20117;-63
2020/12/22 07:13:08;;;;;;;7.37;5.72;;;;;;;;;;4179434;34;20141;-63
2020/12/22 07:15:42;;;;;;;6.60;5.93;;;;;;;;;;4191834;34;20106;-62
2020/12/22 07:18:10;;;;;;;7.50;6.22;;;;;;;;;;4178978;34;20133;-63
2020/12/22 07:20:35;;;;;;;6.62;5.50;;;;;;;;;;4191702;34;20550;-63
2020/12/22 07:23:03;;;;;;;8.48;6.85;;;;;;;;;;4178926;34;20122;-63
2020/12/22 07:25:28;;;;;;;6.90;6.20;;;;;;;;;;4191782;34;20106;-63
2020/12/22 07:27:54;;;;;;;6.93;6.10;;;;;;;;;;4191566;34;20104;-62
2020/12/22 07:30:20;;;;;;;7.35;6.07;;;;;;;;;;4191935;34;20499;-63
2020/12/22 07:32:46;;;;;;;7.93;6.28;;;;;;;;;;4178889;34;20118;-63
2020/12/22 07:35:13;;;;;;;6.53;5.78;;;;;;;;;;4178993;34;20129;-62
2020/12/22 07:37:39;;;;;;;6.72;6.03;;;;;;;;;;4178828;34;20113;-62
2020/12/22 07:40:09;;;;;;;7.30;6.37;;;;;;;;;;4178696;34;20160;-62
2020/12/22 07:42:35;;;;;;;6.20;5.60;;;;;;;;;;4178887;34;20213;-62
2020/12/22 07:45:07;;;;;;;7.72;6.20;;;;;;;;;;4191464;34;20138;-63
2020/12/22 07:47:33;;;;;;;8.25;6.40;;;;;;;;;;4178678;34;20121;-63
2020/12/22 07:50:16;;;;;;;6.85;6.18;;;;;;;;;;4191335;34;20475;-63
2020/12/22 07:52:42;;;;;;;7.00;6.05;;;;;;;;;;4191762;34;20526;-63
2020/12/22 07:55:08;;;;;;;7.37;6.68;;;;;;;;;;4178801;34;20615;-62
2020/12/22 07:57:38;;;;;;;6.93;6.22;;;;;;;;;;4191467;34;20109;-63
2020/12/22 08:00:06;;;;;;;8.15;5.75;;;;;;;;;;4191394;34;20118;-62
2020/12/22 08:02:32;;;;;;;6.90;6.18;;;;;;;;;;4191387;34;20110;-65
2020/12/22 08:05:10;;;;;;;8.57;6.50;;;;;;;;;;4191038;34;20132;-62
2020/12/22 08:07:38;;;;;;;7.43;6.50;;;;;;;;;;4191602;34;20132;-64
2020/12/22 08:10:13;;;;;;;8.93;6.47;;;;;;;;;;4178689;34;20106;-64
2020/12/22 08:12:39;;;;;;;6.87;5.72;;;;;;;;;;4178634;34;20206;-64
2020/12/22 08:15:06;;;;;;;7.20;6.18;;;;;;;;;;4191404;34;20145;-62
2020/12/22 08:17:34;;;;;;;6.93;6.20;;;;;;;;;;4177492;34;20118;-62
2020/12/22 08:20:00;;;;;;;7.55;6.10;;;;;;;;;;4167238;34;20112;-63
2020/12/22 08:22:26;;;;;;;6.90;6.20;;;;;;;;;;4191205;34;20121;-63
2020/12/22 08:24:53;;;;;;;8.10;7.20;;;;;;;;;;4178160;34;20518;-61
2020/12/22 08:27:19;;;;;;;7.53;6.75;;;;;;;;;;4167279;34;20244;-61
2020/12/22 08:29:46;;;;;;;7.50;6.80;;;;;;;;;;4191229;34;20106;-61
2020/12/22 08:32:12;;;;;;;8.07;6.85;;;;;;;;;;4191165;34;20190;-62
2020/12/22 08:34:44;;;;;;;8.50;6.70;;;;;;;;;;4166852;34;20186;-62
2020/12/22 08:37:10;;;;;;;7.70;6.90;;;;;;;;;;4178318;34;20149;-64
2020/12/22 08:39:40;;;;;;;7.15;6.45;;;;;;;;;;4178204;34;20212;-62
2020/12/22 08:42:07;;;;;;;9.27;7.12;;;;;;;;;;4178653;34;20814;-61
2020/12/22 08:44:33;;;;;;;8.15;6.68;;;;;;;;;;4191087;34;20106;-59
2020/12/22 08:47:18;;;;;;;8.20;6.20;;;;;;;;;;4188492;34;20109;-65
2020/12/22 08:49:51;;;;;;;7.12;6.43;;;;;;;;;;4185554;34;20161;-62
2020/12/22 08:52:19;;;;;;;7.30;6.53;;;;;;;;;;4183215;34;20106;-61
2020/12/22 08:54:46;;;;;;;7.43;6.72;;;;;;;;;;4172780;34;20121;-63
2020/12/22 08:57:16;;;;;;;6.97;6.15;;;;;;;;;;4191217;34;20431;-63
2020/12/22 08:59:42;;;;;;;7.82;6.28;;;;;;;;;;4178478;34;20447;-66
2020/12/22 09:02:29;;;;;;;9.13;7.18;;;;;;;;;;4177316;34;20447;-64
2020/12/22 09:04:55;;;;;;;8.13;7.20;;;;;;;;;;4164293;34;20110;-64
2020/12/22 09:07:25;;;;;;;7.95;7.10;;;;;;;;;;4184281;34;20580;-64
2020/12/22 09:10:03;;;;;;;8.23;6.80;;;;;;;;;;4190683;34;20105;-64
2020/12/22 09:12:29;;;;;;;9.00;7.30;;;;;;;;;;4190671;34;20190;-64
2020/12/22 09:14:55;;;;;;;8.27;7.22;;;;;;;;;;4177990;34;20109;-63
2020/12/22 09:17:37;;;;;;;6.87;6.18;;;;;;;;;;4178125;34;20101;-62
2020/12/22 09:20:54;;;;;;;8.20;6.97;;;;;;;;;;4190497;34;20546;-64
2020/12/22 09:23:22;;;;;;;7.80;6.85;;;;;;;;;;4183275;34;20199;-63
2020/12/22 09:25:51;;;;;;;7.93;7.00;;;;;;;;;;4177051;34;20141;-62
2020/12/22 09:28:43;;;;;;;8.27;7.30;;;;;;;;;;4178566;34;20130;-63
2020/12/22 09:31:09;;;;;;;9.13;7.25;;;;;;;;;;4178777;34;20138;-67
2020/12/22 09:33:35;;;;;;;7.32;6.55;;;;;;;;;;4178797;34;20102;-62
2020/12/22 09:36:00;;;;;;;9.85;7.50;;;;;;;;;;4165978;34;20191;-62
2020/12/22 09:38:26;;;;;;;8.13;7.28;;;;;;;;;;4178772;34;20118;-62
2020/12/22 09:40:52;;;;;;;7.65;6.90;;;;;;;;;;4178631;34;20451;-61
2020/12/22 09:43:18;;;;;;;8.25;7.35;;;;;;;;;;4178820;34;20144;-61
2020/12/22 09:45:44;;;;;;;8.07;6.90;;;;;;;;;;4178717;34;20122;-60
2020/12/22 09:48:10;;;;;;;7.57;6.70;;;;;;;;;;4178796;34;20459;-62
2020/12/22 09:50:37;;;;;;;8.02;7.12;;;;;;;;;;4166186;34;20495;-60
2020/12/22 09:53:02;;;;;;;7.85;7.05;;;;;;;;;;4178412;34;20114;-62
2020/12/22 09:55:28;;;;;;;7.30;6.60;;;;;;;;;;4186988;34;20141;-61
2020/12/22 09:57:54;;;;;;;7.45;6.75;;;;;;;;;;4191894;34;20538;-60
2020/12/22 10:00:20;;;;;;;9.18;7.32;;;;;;;;;;4192185;34;20226;-61
2020/12/22 10:02:46;;;;;;;9.60;7.68;;;;;;;;;;4179930;34;20118;-61
2020/12/22 10:05:12;;;;;;;8.98;7.50;;;;;;;;;;4184505;34;20630;-63
2020/12/22 10:07:38;;;;;;;7.97;7.18;;;;;;;;;;4177842;34;20130;-62
2020/12/22 10:10:04;;;;;;;9.80;6.62;;;;;;;;;;4184361;34;20213;-63
2020/12/22 10:12:30;;;;;;;8.30;7.37;;;;;;;;;;4192257;34;20205;-63
2020/12/22 10:14:59;;;;;;;7.80;6.87;;;;;;;;;;4177998;34;20267;-62
2020/12/22 10:17:31;;;;;;;8.07;7.15;;;;;;;;;;4190516;34;20577;-62
2020/12/22 10:20:01;;;;;;;8.07;7.30;;;;;;;;;;4190649;34;20110;-62
2020/12/22 10:22:30;;;;;;;8.27;7.32;;;;;;;;;;4190742;34;20102;-61
2020/12/22 10:25:07;;;;;;;8.98;7.50;;;;;;;;;;4182076;34;20193;-64
2020/12/22 10:27:43;;;;;;;8.27;7.43;;;;;;;;;;4176854;34;20156;-63
2020/12/22 10:30:12;;;;;;;8.18;7.15;;;;;;;;;;4177104;34;20136;-62
2020/12/22 10:32:38;;;;;;;8.75;7.50;;;;;;;;;;4178248;34;20439;-62
2020/12/22 10:35:05;;;;;;;9.38;8.07;;;;;;;;;;4177769;34;20440;-62
2020/12/22 10:37:33;;;;;;;10.60;7.53;;;;;;;;;;4178089;34;20129;-63
2020/12/22 10:39:59;;;;;;;8.05;7.35;;;;;;;;;;4176522;34;20141;-59
2020/12/22 10:42:29;;;;;;;7.95;7.15;;;;;;;;;;4176851;34;20122;-63
2020/12/22 10:44:55;;;;;;;9.18;6.70;;;;;;;;;;4177551;34;20194;-64
2020/12/22 10:47:24;;;;;;;10.40;7.97;;;;;;;;;;4177966;34;20585;-65
2020/12/22 10:49:53;;;;;;;8.77;7.70;;;;;;;;;;4177523;34;20175;-65
2020/12/22 10:52:22;;;;;;;8.80;7.93;;;;;;;;;;4187872;34;20124;-63
2020/12/22 10:54:54;;;;;;;8.70;7.80;;;;;;;;;;4191200;34;20138;-64
2020/12/22 10:57:25;;;;;;;8.80;7.28;;;;;;;;;;4191315;34;20149;-63
2020/12/22 10:59:58;;;;;;;8.25;7.45;;;;;;;;;;4190935;34;20141;-63
2020/12/22 11:02:25;;;;;;;8.70;7.80;;;;;;;;;;4191439;34;20198;-62
2020/12/22 11:04:54;;;;;;;8.85;7.95;;;;;;;;;;4190964;34;20148;-62
2020/12/22 11:07:30;;;;;;;9.20;8.07;;;;;;;;;;4191204;34;20129;-62
2020/12/22 11:09:59;;;;;;;9.20;7.65;;;;;;;;;;4190802;34;20107;-62
2020/12/22 11:12:25;;;;;;;8.45;7.65;;;;;;;;;;4190788;34;20129;-63
2020/12/22 11:14:52;;;;;;;9.52;7.95;;;;;;;;;;4190818;34;20652;-62
2020/12/22 11:17:18;;;;;;;8.35;7.53;;;;;;;;;;4191264;34;20129;-63
2020/12/22 11:19:47;;;;;;;10.05;7.87;;;;;;;;;;4190808;34;20094;-62
2020/12/22 11:22:17;;;;;;;9.05;7.97;;;;;;;;;;4191032;34;20140;-63
2020/12/22 11:25:07;;;;;;;8.27;7.45;;;;;;;;;;4178106;34;20102;-63
2020/12/22 11:27:37;;;;;;;8.95;7.25;;;;;;;;;;4190616;34;20143;-63
2020/12/22 11:30:14;;;;;;;8.95;7.30;;;;;;;;;;4190804;34;20129;-64
2020/12/22 11:33:14;;;;;;;9.27;7.95;;;;;;;;;;4190745;34;20137;-64
2020/12/22 11:36:05;;;;;;;8.27;7.47;;;;;;;;;;4190770;34;20117;-64
2020/12/22 11:38:51;;;;;;;9.30;7.82;;;;;;;;;;4191007;34;20116;-64
2020/12/22 11:41:23;;;;;;;9.10;8.20;;;;;;;;;;4191058;34;20114;-64
2020/12/22 11:44:11;;;;;;;10.68;9.50;;;;;;;;;;4191128;34;20545;-63
2020/12/22 11:46:45;;;;;;;9.30;8.32;;;;;;;;;;4179680;34;20539;-65
2020/12/22 11:49:11;;;;;;;9.70;8.77;;;;;;;;;;4190917;34;20173;-64
2020/12/22 11:51:38;;;;;;;10.23;8.75;;;;;;;;;;4190942;34;20530;-61
2020/12/22 11:54:07;;;;;;;9.27;8.00;;;;;;;;;;4191027;34;20117;-64
2020/12/22 11:56:33;;;;;;;8.07;7.28;;;;;;;;;;4191103;34;20110;-65
2020/12/22 11:58:59;;;;;;;8.43;7.57;;;;;;;;;;4191059;34;20197;-65
2020/12/22 12:01:28;;;;;;;8.63;7.72;;;;;;;;;;4191384;34;20185;-65
2020/12/22 12:03:57;;;;;;;9.43;8.50;;;;;;;;;;4178275;34;20101;-65
2020/12/22 12:06:23;;;;;;;10.07;8.75;;;;;;;;;;4190835;34;20601;-67
2020/12/22 12:08:49;;;;;;;10.40;8.70;;;;;;;;;;4190927;34;20126;-65
2020/12/22 12:11:15;;;;;;;8.95;7.60;;;;;;;;;;4190790;34;20110;-65
2020/12/22 12:13:41;;;;;;;8.95;7.10;;;;;;;;;;4178320;34;20119;-65
2020/12/22 12:16:08;;;;;;;9.30;8.25;;;;;;;;;;4191179;34;20133;-65
2020/12/22 12:18:36;;;;;;;9.95;8.95;;;;;;;;;;4191336;34;20118;-66
2020/12/22 12:21:04;;;;;;;14.57;13.00;;;;;;;;;;4190800;34;20133;-65
2020/12/22 12:23:30;;;;;;;21.42;18.30;;;;;;;;;;4191082;34;20455;-66
2020/12/22 12:25:56;;;;;;;20.15;17.67;;;;;;;;;;4177973;34;20230;-67
2020/12/22 12:28:22;;;;;;;13.68;10.07;;;;;;;;;;4190788;34;20233;-67
2020/12/22 12:30:49;;;;;;;12.32;11.18;;;;;;;;;;4190443;34;20116;-67
2020/12/22 12:33:15;;;;;;;8.30;7.50;;;;;;;;;;4178305;34;20149;-66
2020/12/22 12:35:43;;;;;;;8.65;7.85;;;;;;;;;;4191062;34;20114;-67
2020/12/22 12:38:09;;;;;;;8.73;7.90;;;;;;;;;;4191068;34;20126;-66
2020/12/22 12:40:35;;;;;;;9.48;8.15;;;;;;;;;;4190746;34;20136;-66
2020/12/22 12:43:02;;;;;;;8.40;7.55;;;;;;;;;;4190829;34;20187;-66
2020/12/22 12:45:30;;;;;;;8.10;7.22;;;;;;;;;;4190568;34;20098;-67
2020/12/22 12:47:56;;;;;;;8.82;7.80;;;;;;;;;;4190788;34;20179;-66
2020/12/22 12:50:28;;;;;;;9.35;7.75;;;;;;;;;;4190467;34;20205;-67
2020/12/22 12:53:03;;;;;;;10.18;8.52;;;;;;;;;;4190693;34;20217;-67
2020/12/22 12:55:33;;;;;;;9.20;8.02;;;;;;;;;;4190183;34;20105;-64
2020/12/22 12:58:22;;;;;;;8.57;7.85;;;;;;;;;;4179290;34;20538;-62
2020/12/22 13:00:53;;;;;;;9.02;8.13;;;;;;;;;;4190411;34;20094;-62
2020/12/22 13:03:23;;;;;;;8.65;7.75;;;;;;;;;;4189880;34;20190;-63
2020/12/22 13:05:50;;;;;;;8.32;7.53;;;;;;;;;;4189895;34;20102;-62
2020/12/22 13:08:19;;;;;;;8.98;8.07;;;;;;;;;;4190540;34;20098;-63
2020/12/22 13:10:50;;;;;;;8.82;7.57;;;;;;;;;;4189971;34;20098;-63
2020/12/22 13:13:16;;;;;;;8.05;7.25;;;;;;;;;;4177839;34;20556;-61
2020/12/22 13:15:42;;;;;;;12.73;9.25;;;;;;;;;;4190211;34;20514;-63
2020/12/22 13:18:08;;;;;;;10.30;7.85;;;;;;;;;;4190174;34;20110;-63
2020/12/22 13:20:36;;;;;;;9.23;8.20;;;;;;;;;;4189654;34;20102;-65
2020/12/22 13:23:03;;;;;;;9.48;8.48;;;;;;;;;;4190500;34;20125;-64
2020/12/22 13:25:29;;;;;;;9.80;8.68;;;;;;;;;;4177631;34;20114;-64
2020/12/22 13:27:55;;;;;;;9.57;8.38;;;;;;;;;;4190586;34;20109;-65
2020/12/22 13:30:21;;;;;;;8.60;7.72;;;;;;;;;;4190667;34;20097;-64
2020/12/22 13:32:47;;;;;;;9.13;8.23;;;;;;;;;;4190598;34;20125;-65
2020/12/22 13:35:13;;;;;;;11.93;8.27;;;;;;;;;;4190563;34;20606;-65
2020/12/22 13:37:39;;;;;;;9.38;8.48;;;;;;;;;;4190487;34;20530;-64
2020/12/22 13:40:06;;;;;;;8.90;7.97;;;;;;;;;;4190300;34;20122;-64
2020/12/22 13:42:32;;;;;;;9.70;8.80;;;;;;;;;;4190378;34;20105;-64
2020/12/22 13:44:58;;;;;;;10.40;9.30;;;;;;;;;;4166155;34;20643;-63
2020/12/22 13:47:23;;;;;;;8.85;7.95;;;;;;;;;;4177410;34;20132;-62
2020/12/22 13:49:49;;;;;;;9.07;8.13;;;;;;;;;;4190151;34;20122;-63
2020/12/22 13:52:15;;;;;;;9.77;8.65;;;;;;;;;;4190296;34;20144;-68
2020/12/22 13:54:41;;;;;;;9.68;8.68;;;;;;;;;;4190319;34;20106;-64
2020/12/22 13:57:07;;;;;;;9.57;8.57;;;;;;;;;;4190088;34;20546;-63
2020/12/22 13:59:33;;;;;;;9.88;8.77;;;;;;;;;;4190103;34;20141;-64
2020/12/22 14:02:04;;;;;;;11.10;9.90;;;;;;;;;;4177240;34;20490;-62
2020/12/22 14:04:30;;;;;;;9.82;8.80;;;;;;;;;;4177156;34;20118;-65
2020/12/22 14:06:56;;;;;;;9.95;8.98;;;;;;;;;;4176876;34;20344;-65
2020/12/22 14:09:22;;;;;;;8.93;8.02;;;;;;;;;;4177408;34;20114;-63
2020/12/22 14:11:51;;;;;;;9.05;8.10;;;;;;;;;;4190016;34;20098;-63
2020/12/22 14:14:17;;;;;;;9.07;8.00;;;;;;;;;;4190593;34;20130;-64
2020/12/22 14:16:44;;;;;;;8.48;7.68;;;;;;;;;;4179350;34;20226;-64
2020/12/22 14:19:10;;;;;;;8.98;8.07;;;;;;;;;;4191656;34;20118;-63
2020/12/22 14:21:37;;;;;;;9.43;8.43;;;;;;;;;;4191657;34;20109;-63
2020/12/22 14:24:11;;;;;;;9.20;8.30;;;;;;;;;;4181723;34;20202;-64
2020/12/22 14:26:51;;;;;;;9.82;8.60;;;;;;;;;;4184213;34;20231;-64
2020/12/22 14:29:25;;;;;;;11.23;9.45;;;;;;;;;;4186490;34;20121;-63
2020/12/22 14:31:51;;;;;;;9.15;8.10;;;;;;;;;;4181497;34;20102;-63
2020/12/22 14:34:16;;;;;;;9.45;8.55;;;;;;;;;;4191913;34;20471;-63
2020/12/22 14:36:42;;;;;;;9.25;8.35;;;;;;;;;;4172452;34;20125;-63
2020/12/22 14:39:09;;;;;;;9.10;8.20;;;;;;;;;;4165261;34;20529;-63
2020/12/22 14:41:35;;;;;;;9.00;8.18;;;;;;;;;;4178105;34;20126;-67
2020/12/22 14:44:00;;;;;;;9.48;8.35;;;;;;;;;;4177705;34;20546;-66
2020/12/22 14:46:26;;;;;;;9.13;8.23;;;;;;;;;;4191076;34;20134;-62
2020/12/22 14:48:52;;;;;;;9.15;8.25;;;;;;;;;;4192041;34;20114;-65
2020/12/22 14:51:18;;;;;;;8.98;8.07;;;;;;;;;;4191647;34;20126;-66
2020/12/22 14:53:45;;;;;;;8.73;7.85;;;;;;;;;;4191409;34;20102;-64